sensor_id;sensor_type;location;lat;lon;timestamp;temperature;humidity
63013;DHT22;62113;45.624;11.700;2023-09-18T00:01:37;24.50;72.10
63013;DHT22;62113;45.624;11.700;2023-09-18T00:04:05;24.50;71.80
63013;DHT22;62113;45.624;11.700;2023-09-18T00:06:30;24.50;71.90
63013;DHT22;62113;45.624;11.700;2023-09-18T00:08:56;24.50;72.70
63013;DHT22;62113;45.624;11.700;2023-09-18T00:11:21;24.40;72.20
63013;DHT22;62113;45.624;11.700;2023-09-18T00:13:47;24.40;71.90
63013;DHT22;62113;45.624;11.700;2023-09-18T00:16:12;24.40;72.00
63013;DHT22;62113;45.624;11.700;2023-09-18T00:18:38;24.40;71.80
63013;DHT22;62113;45.624;11.700;2023-09-18T00:21:04;24.40;72.10
63013;DHT22;62113;45.624;11.700;2023-09-18T00:23:29;24.30;72.10
63013;DHT22;62113;45.624;11.700;2023-09-18T00:25:55;24.30;72.10
63013;DHT22;62113;45.624;11.700;2023-09-18T00:28:20;24.30;72.20
63013;DHT22;62113;45.624;11.700;2023-09-18T00:30:47;24.30;72.50
63013;DHT22;62113;45.624;11.700;2023-09-18T00:33:13;24.30;72.50
63013;DHT22;62113;45.624;11.700;2023-09-18T00:35:38;24.30;72.30
63013;DHT22;62113;45.624;11.700;2023-09-18T00:38:04;24.30;72.50
63013;DHT22;62113;45.624;11.700;2023-09-18T00:40:29;24.20;73.10
63013;DHT22;62113;45.624;11.700;2023-09-18T00:42:55;24.20;72.70
63013;DHT22;62113;45.624;11.700;2023-09-18T00:45:20;24.20;72.80
63013;DHT22;62113;45.624;11.700;2023-09-18T00:47:46;24.20;72.40
63013;DHT22;62113;45.624;11.700;2023-09-18T00:50:11;24.20;72.60
63013;DHT22;62113;45.624;11.700;2023-09-18T00:52:38;24.20;72.80
63013;DHT22;62113;45.624;11.700;2023-09-18T00:55:04;24.20;72.30
63013;DHT22;62113;45.624;11.700;2023-09-18T00:57:31;24.20;72.30
63013;DHT22;62113;45.624;11.700;2023-09-18T00:59:57;24.20;72.50
63013;DHT22;62113;45.624;11.700;2023-09-18T01:02:22;24.20;72.40
63013;DHT22;62113;45.624;11.700;2023-09-18T01:04:48;24.20;72.30
63013;DHT22;62113;45.624;11.700;2023-09-18T01:07:14;24.30;72.10
63013;DHT22;62113;45.624;11.700;2023-09-18T01:09:40;24.20;72.10
63013;DHT22;62113;45.624;11.700;2023-09-18T01:12:08;24.20;72.20
63013;DHT22;62113;45.624;11.700;2023-09-18T01:14:39;24.20;72.60
63013;DHT22;62113;45.624;11.700;2023-09-18T01:17:06;24.20;72.40
63013;DHT22;62113;45.624;11.700;2023-09-18T01:22:03;24.20;72.90
63013;DHT22;62113;45.624;11.700;2023-09-18T01:24:28;24.20;72.40
63013;DHT22;62113;45.624;11.700;2023-09-18T01:26:54;24.20;72.30
63013;DHT22;62113;45.624;11.700;2023-09-18T01:29:19;24.20;72.20
63013;DHT22;62113;45.624;11.700;2023-09-18T01:31:46;24.20;72.20
63013;DHT22;62113;45.624;11.700;2023-09-18T01:34:14;24.20;72.40
63013;DHT22;62113;45.624;11.700;2023-09-18T01:36:41;24.20;72.40
63013;DHT22;62113;45.624;11.700;2023-09-18T01:39:07;24.20;72.40
63013;DHT22;62113;45.624;11.700;2023-09-18T01:41:34;24.10;72.30
63013;DHT22;62113;45.624;11.700;2023-09-18T01:44:00;24.10;72.40
63013;DHT22;62113;45.624;11.700;2023-09-18T01:46:25;24.10;72.60
63013;DHT22;62113;45.624;11.700;2023-09-18T01:48:52;24.10;72.40
63013;DHT22;62113;45.624;11.700;2023-09-18T01:51:17;24.10;72.40
63013;DHT22;62113;45.624;11.700;2023-09-18T01:53:43;24.10;72.40
63013;DHT22;62113;45.624;11.700;2023-09-18T01:56:09;24.00;72.50
63013;DHT22;62113;45.624;11.700;2023-09-18T01:58:34;24.00;72.70
63013;DHT22;62113;45.624;11.700;2023-09-18T02:01:00;24.00;72.80
63013;DHT22;62113;45.624;11.700;2023-09-18T02:03:26;24.00;72.90
63013;DHT22;62113;45.624;11.700;2023-09-18T02:05:51;24.00;72.80
63013;DHT22;62113;45.624;11.700;2023-09-18T02:08:17;24.00;72.80
63013;DHT22;62113;45.624;11.700;2023-09-18T02:10:42;24.00;72.80
63013;DHT22;62113;45.624;11.700;2023-09-18T02:13:08;24.00;72.90
63013;DHT22;62113;45.624;11.700;2023-09-18T02:15:35;23.90;72.80
63013;DHT22;62113;45.624;11.700;2023-09-18T02:18:02;23.90;73.10
63013;DHT22;62113;45.624;11.700;2023-09-18T02:20:27;23.90;73.50
63013;DHT22;62113;45.624;11.700;2023-09-18T02:22:53;23.80;74.00
63013;DHT22;62113;45.624;11.700;2023-09-18T02:25:18;23.80;73.40
63013;DHT22;62113;45.624;11.700;2023-09-18T02:27:44;23.80;73.40
63013;DHT22;62113;45.624;11.700;2023-09-18T02:30:09;23.80;73.50
63013;DHT22;62113;45.624;11.700;2023-09-18T02:32:35;23.80;73.10
63013;DHT22;62113;45.624;11.700;2023-09-18T02:35:01;23.70;73.40
63013;DHT22;62113;45.624;11.700;2023-09-18T02:37:27;23.70;73.60
63013;DHT22;62113;45.624;11.700;2023-09-18T02:39:54;23.70;73.50
63013;DHT22;62113;45.624;11.700;2023-09-18T02:42:19;23.70;73.50
63013;DHT22;62113;45.624;11.700;2023-09-18T02:44:45;23.70;73.40
63013;DHT22;62113;45.624;11.700;2023-09-18T02:47:10;23.70;73.50
63013;DHT22;62113;45.624;11.700;2023-09-18T02:49:36;23.70;73.30
63013;DHT22;62113;45.624;11.700;2023-09-18T02:52:02;23.70;73.20
63013;DHT22;62113;45.624;11.700;2023-09-18T02:54:28;23.70;73.00
63013;DHT22;62113;45.624;11.700;2023-09-18T02:56:54;23.70;73.20
63013;DHT22;62113;45.624;11.700;2023-09-18T02:59:19;23.70;73.00
63013;DHT22;62113;45.624;11.700;2023-09-18T03:01:45;23.70;73.00
63013;DHT22;62113;45.624;11.700;2023-09-18T03:04:10;23.70;73.00
63013;DHT22;62113;45.624;11.700;2023-09-18T03:06:37;23.70;73.00
63013;DHT22;62113;45.624;11.700;2023-09-18T03:09:03;23.70;73.10
63013;DHT22;62113;45.624;11.700;2023-09-18T03:11:29;23.70;73.00
63013;DHT22;62113;45.624;11.700;2023-09-18T03:13:55;23.70;73.20
63013;DHT22;62113;45.624;11.700;2023-09-18T03:16:20;23.70;73.00
63013;DHT22;62113;45.624;11.700;2023-09-18T03:18:46;23.70;72.90
63013;DHT22;62113;45.624;11.700;2023-09-18T03:21:11;23.70;72.80
63013;DHT22;62113;45.624;11.700;2023-09-18T03:23:37;23.70;72.90
63013;DHT22;62113;45.624;11.700;2023-09-18T03:26:02;23.70;72.90
63013;DHT22;62113;45.624;11.700;2023-09-18T03:28:28;23.70;72.90
63013;DHT22;62113;45.624;11.700;2023-09-18T03:30:53;23.70;72.80
63013;DHT22;62113;45.624;11.700;2023-09-18T03:33:19;23.70;72.70
63013;DHT22;62113;45.624;11.700;2023-09-18T03:35:45;23.60;72.70
63013;DHT22;62113;45.624;11.700;2023-09-18T03:38:11;23.70;72.70
63013;DHT22;62113;45.624;11.700;2023-09-18T03:40:37;23.60;72.50
63013;DHT22;62113;45.624;11.700;2023-09-18T03:43:02;23.60;72.50
63013;DHT22;62113;45.624;11.700;2023-09-18T03:45:28;23.70;72.50
63013;DHT22;62113;45.624;11.700;2023-09-18T03:47:53;23.70;72.30
63013;DHT22;62113;45.624;11.700;2023-09-18T03:50:19;23.70;72.30
63013;DHT22;62113;45.624;11.700;2023-09-18T03:52:44;23.70;72.30
63013;DHT22;62113;45.624;11.700;2023-09-18T03:55:10;23.60;72.20
63013;DHT22;62113;45.624;11.700;2023-09-18T03:57:35;23.50;72.40
63013;DHT22;62113;45.624;11.700;2023-09-18T04:00:02;23.40;72.30
63013;DHT22;62113;45.624;11.700;2023-09-18T04:02:28;23.40;72.40
63013;DHT22;62113;45.624;11.700;2023-09-18T04:04:55;23.40;72.40
63013;DHT22;62113;45.624;11.700;2023-09-18T04:07:21;23.40;72.40
63013;DHT22;62113;45.624;11.700;2023-09-18T04:09:46;23.40;72.40
63013;DHT22;62113;45.624;11.700;2023-09-18T04:12:12;23.40;72.50
63013;DHT22;62113;45.624;11.700;2023-09-18T04:14:38;23.40;72.60
63013;DHT22;62113;45.624;11.700;2023-09-18T04:17:03;23.50;72.70
63013;DHT22;62113;45.624;11.700;2023-09-18T04:19:29;23.50;72.60
63013;DHT22;62113;45.624;11.700;2023-09-18T04:21:55;23.60;72.50
63013;DHT22;62113;45.624;11.700;2023-09-18T04:24:22;23.60;72.60
63013;DHT22;62113;45.624;11.700;2023-09-18T04:27:06;23.60;72.50
63013;DHT22;62113;45.624;11.700;2023-09-18T04:29:32;23.70;72.20
63013;DHT22;62113;45.624;11.700;2023-09-18T04:31:57;23.70;72.20
63013;DHT22;62113;45.624;11.700;2023-09-18T04:34:23;23.70;72.30
63013;DHT22;62113;45.624;11.700;2023-09-18T04:36:48;23.70;72.20
63013;DHT22;62113;45.624;11.700;2023-09-18T04:39:14;23.70;72.40
63013;DHT22;62113;45.624;11.700;2023-09-18T04:41:39;23.70;72.20
63013;DHT22;62113;45.624;11.700;2023-09-18T04:44:05;23.70;72.60
63013;DHT22;62113;45.624;11.700;2023-09-18T04:46:30;23.70;72.20
63013;DHT22;62113;45.624;11.700;2023-09-18T04:48:56;23.70;72.30
63013;DHT22;62113;45.624;11.700;2023-09-18T04:51:21;23.70;72.40
63013;DHT22;62113;45.624;11.700;2023-09-18T04:53:47;23.70;72.60
63013;DHT22;62113;45.624;11.700;2023-09-18T04:56:12;23.70;72.60
63013;DHT22;62113;45.624;11.700;2023-09-18T04:58:38;23.70;72.60
63013;DHT22;62113;45.624;11.700;2023-09-18T05:01:04;23.70;72.70
63013;DHT22;62113;45.624;11.700;2023-09-18T05:03:33;23.70;72.80
63013;DHT22;62113;45.624;11.700;2023-09-18T05:05:59;23.70;73.10
63013;DHT22;62113;45.624;11.700;2023-09-18T05:08:25;23.80;72.80
63013;DHT22;62113;45.624;11.700;2023-09-18T05:10:51;23.80;72.60
63013;DHT22;62113;45.624;11.700;2023-09-18T05:13:16;23.80;72.50
63013;DHT22;62113;45.624;11.700;2023-09-18T05:15:42;23.90;72.70
63013;DHT22;62113;45.624;11.700;2023-09-18T05:18:07;23.80;72.70
63013;DHT22;62113;45.624;11.700;2023-09-18T05:20:34;23.80;72.70
63013;DHT22;62113;45.624;11.700;2023-09-18T05:22:59;23.80;72.30
63013;DHT22;62113;45.624;11.700;2023-09-18T05:25:27;23.80;72.40
63013;DHT22;62113;45.624;11.700;2023-09-18T05:27:54;23.90;72.60
63013;DHT22;62113;45.624;11.700;2023-09-18T05:32:56;23.90;72.70
63013;DHT22;62113;45.624;11.700;2023-09-18T05:35:22;23.90;72.70
63013;DHT22;62113;45.624;11.700;2023-09-18T05:37:48;24.00;72.30
63013;DHT22;62113;45.624;11.700;2023-09-18T05:40:14;24.00;72.20
63013;DHT22;62113;45.624;11.700;2023-09-18T05:42:41;24.00;72.30
63013;DHT22;62113;45.624;11.700;2023-09-18T05:45:13;24.00;72.60
63013;DHT22;62113;45.624;11.700;2023-09-18T05:47:38;24.00;72.30
63013;DHT22;62113;45.624;11.700;2023-09-18T05:50:08;24.10;72.40
63013;DHT22;62113;45.624;11.700;2023-09-18T05:52:34;24.10;72.30
63013;DHT22;62113;45.624;11.700;2023-09-18T05:55:00;24.10;72.40
63013;DHT22;62113;45.624;11.700;2023-09-18T05:57:26;24.10;72.50
63013;DHT22;62113;45.624;11.700;2023-09-18T05:59:56;24.10;72.70
63013;DHT22;62113;45.624;11.700;2023-09-18T06:02:22;24.10;72.70
63013;DHT22;62113;45.624;11.700;2023-09-18T06:04:48;24.10;72.40
63013;DHT22;62113;45.624;11.700;2023-09-18T06:07:13;24.20;72.40
63013;DHT22;62113;45.624;11.700;2023-09-18T06:09:39;24.20;72.30
63013;DHT22;62113;45.624;11.700;2023-09-18T06:12:05;24.20;72.50
63013;DHT22;62113;45.624;11.700;2023-09-18T06:14:30;24.20;72.30
63013;DHT22;62113;45.624;11.700;2023-09-18T06:16:56;24.30;72.40
63013;DHT22;62113;45.624;11.700;2023-09-18T06:19:22;24.30;72.50
63013;DHT22;62113;45.624;11.700;2023-09-18T06:21:48;24.40;72.60
63013;DHT22;62113;45.624;11.700;2023-09-18T06:24:13;24.40;72.40
63013;DHT22;62113;45.624;11.700;2023-09-18T06:26:39;24.50;72.20
63013;DHT22;62113;45.624;11.700;2023-09-18T06:29:05;24.50;72.10
63013;DHT22;62113;45.624;11.700;2023-09-18T06:31:31;24.50;72.30
63013;DHT22;62113;45.624;11.700;2023-09-18T06:33:56;24.50;72.10
63013;DHT22;62113;45.624;11.700;2023-09-18T06:36:22;24.50;72.10
63013;DHT22;62113;45.624;11.700;2023-09-18T06:38:48;24.50;72.10
63013;DHT22;62113;45.624;11.700;2023-09-18T06:41:13;24.50;72.20
63013;DHT22;62113;45.624;11.700;2023-09-18T06:43:39;24.60;72.10
63013;DHT22;62113;45.624;11.700;2023-09-18T06:46:06;24.60;71.90
63013;DHT22;62113;45.624;11.700;2023-09-18T06:48:32;24.60;72.00
63013;DHT22;62113;45.624;11.700;2023-09-18T06:50:58;24.60;72.30
63013;DHT22;62113;45.624;11.700;2023-09-18T06:53:26;24.60;72.00
63013;DHT22;62113;45.624;11.700;2023-09-18T06:55:52;24.60;72.00
63013;DHT22;62113;45.624;11.700;2023-09-18T06:58:17;24.70;71.80
63013;DHT22;62113;45.624;11.700;2023-09-18T07:00:43;24.70;72.00
63013;DHT22;62113;45.624;11.700;2023-09-18T07:03:08;24.70;71.70
63013;DHT22;62113;45.624;11.700;2023-09-18T07:05:35;24.70;72.10
63013;DHT22;62113;45.624;11.700;2023-09-18T07:08:00;24.60;71.80
63013;DHT22;62113;45.624;11.700;2023-09-18T07:10:26;24.60;72.00
63013;DHT22;62113;45.624;11.700;2023-09-18T07:12:51;24.60;72.10
63013;DHT22;62113;45.624;11.700;2023-09-18T07:15:17;24.60;72.20
63013;DHT22;62113;45.624;11.700;2023-09-18T07:17:42;24.50;72.40
63013;DHT22;62113;45.624;11.700;2023-09-18T07:20:08;24.60;72.50
63013;DHT22;62113;45.624;11.700;2023-09-18T07:22:48;24.60;72.50
63013;DHT22;62113;45.624;11.700;2023-09-18T07:25:14;24.70;72.50
63013;DHT22;62113;45.624;11.700;2023-09-18T07:27:40;24.70;72.20
63013;DHT22;62113;45.624;11.700;2023-09-18T07:30:13;24.70;72.10
63013;DHT22;62113;45.624;11.700;2023-09-18T07:32:42;24.70;72.10
63013;DHT22;62113;45.624;11.700;2023-09-18T07:35:08;24.80;72.10
63013;DHT22;62113;45.624;11.700;2023-09-18T07:37:34;24.90;72.00
63013;DHT22;62113;45.624;11.700;2023-09-18T07:40:00;24.90;72.00
63013;DHT22;62113;45.624;11.700;2023-09-18T07:42:26;25.00;71.70
63013;DHT22;62113;45.624;11.700;2023-09-18T07:44:52;25.10;71.50
63013;DHT22;62113;45.624;11.700;2023-09-18T07:47:18;25.20;71.50
63013;DHT22;62113;45.624;11.700;2023-09-18T07:49:44;25.20;71.50
63013;DHT22;62113;45.624;11.700;2023-09-18T07:52:10;25.30;71.10
63013;DHT22;62113;45.624;11.700;2023-09-18T07:54:35;25.30;70.80
63013;DHT22;62113;45.624;11.700;2023-09-18T07:57:00;25.30;70.70
63013;DHT22;62113;45.624;11.700;2023-09-18T07:59:26;25.40;70.50
63013;DHT22;62113;45.624;11.700;2023-09-18T08:01:51;25.50;70.20
63013;DHT22;62113;45.624;11.700;2023-09-18T08:04:17;25.80;69.30
63013;DHT22;62113;45.624;11.700;2023-09-18T08:06:43;25.90;68.50
63013;DHT22;62113;45.624;11.700;2023-09-18T08:09:08;26.00;68.60
63013;DHT22;62113;45.624;11.700;2023-09-18T08:11:41;25.90;67.80
63013;DHT22;62113;45.624;11.700;2023-09-18T08:14:11;26.00;68.20
63013;DHT22;62113;45.624;11.700;2023-09-18T08:16:39;26.00;68.00
63013;DHT22;62113;45.624;11.700;2023-09-18T08:19:04;26.00;67.40
63013;DHT22;62113;45.624;11.700;2023-09-18T08:21:30;26.20;67.10
63013;DHT22;62113;45.624;11.700;2023-09-18T08:23:55;26.70;66.70
63013;DHT22;62113;45.624;11.700;2023-09-18T08:26:21;27.30;64.90
63013;DHT22;62113;45.624;11.700;2023-09-18T08:28:47;27.90;62.20
63013;DHT22;62113;45.624;11.700;2023-09-18T08:31:12;28.60;62.10
63013;DHT22;62113;45.624;11.700;2023-09-18T08:33:38;29.30;61.30
63013;DHT22;62113;45.624;11.700;2023-09-18T08:36:03;30.00;59.70
63013;DHT22;62113;45.624;11.700;2023-09-18T08:38:29;30.70;57.10
63013;DHT22;62113;45.624;11.700;2023-09-18T08:40:54;31.50;56.50
63013;DHT22;62113;45.624;11.700;2023-09-18T08:43:20;32.20;52.40
63013;DHT22;62113;45.624;11.700;2023-09-18T08:45:49;32.50;52.50
63013;DHT22;62113;45.624;11.700;2023-09-18T08:48:16;32.20;50.50
63013;DHT22;62113;45.624;11.700;2023-09-18T08:50:42;31.60;51.70
63013;DHT22;62113;45.624;11.700;2023-09-18T08:53:08;31.00;53.10
63013;DHT22;62113;45.624;11.700;2023-09-18T08:55:34;30.40;54.30
63013;DHT22;62113;45.624;11.700;2023-09-18T08:57:59;29.90;55.30
63013;DHT22;62113;45.624;11.700;2023-09-18T09:00:26;29.40;55.50
63013;DHT22;62113;45.624;11.700;2023-09-18T09:02:51;29.10;58.10
63013;DHT22;62113;45.624;11.700;2023-09-18T09:05:20;28.80;58.30
63013;DHT22;62113;45.624;11.700;2023-09-18T09:07:45;28.50;60.70
63013;DHT22;62113;45.624;11.700;2023-09-18T09:10:11;28.30;60.90
63013;DHT22;62113;45.624;11.700;2023-09-18T09:15:15;28.00;61.50
63013;DHT22;62113;45.624;11.700;2023-09-18T09:17:41;27.80;62.10
63013;DHT22;62113;45.624;11.700;2023-09-18T09:20:11;27.70;61.90
63013;DHT22;62113;45.624;11.700;2023-09-18T09:22:37;27.50;63.20
63013;DHT22;62113;45.624;11.700;2023-09-18T09:25:03;27.40;63.50
63013;DHT22;62113;45.624;11.700;2023-09-18T09:27:29;27.20;64.00
63013;DHT22;62113;45.624;11.700;2023-09-18T09:30:06;27.10;64.50
63013;DHT22;62113;45.624;11.700;2023-09-18T09:32:32;27.00;65.10
63013;DHT22;62113;45.624;11.700;2023-09-18T09:34:59;26.90;65.50
63013;DHT22;62113;45.624;11.700;2023-09-18T09:37:31;26.80;65.00
63013;DHT22;62113;45.624;11.700;2023-09-18T09:39:57;26.70;65.20
63013;DHT22;62113;45.624;11.700;2023-09-18T09:42:38;26.80;64.90
63013;DHT22;62113;45.624;11.700;2023-09-18T09:45:04;26.70;66.10
63013;DHT22;62113;45.624;11.700;2023-09-18T09:47:35;26.80;65.70
63013;DHT22;62113;45.624;11.700;2023-09-18T09:50:35;26.70;65.60
63013;DHT22;62113;45.624;11.700;2023-09-18T09:52:54;26.70;65.60
63013;DHT22;62113;45.624;11.700;2023-09-18T09:55:24;26.70;67.10
63013;DHT22;62113;45.624;11.700;2023-09-18T09:57:54;26.60;66.50
63013;DHT22;62113;45.624;11.700;2023-09-18T10:00:23;26.70;66.90
63013;DHT22;62113;45.624;11.700;2023-09-18T10:03:02;26.70;66.30
63013;DHT22;62113;45.624;11.700;2023-09-18T10:05:29;26.80;67.20
63013;DHT22;62113;45.624;11.700;2023-09-18T10:07:58;26.90;66.30
63013;DHT22;62113;45.624;11.700;2023-09-18T10:10:29;26.90;65.80
63013;DHT22;62113;45.624;11.700;2023-09-18T10:12:54;26.90;65.50
63013;DHT22;62113;45.624;11.700;2023-09-18T10:15:21;27.00;65.20
63013;DHT22;62113;45.624;11.700;2023-09-18T10:17:48;27.00;65.40
63013;DHT22;62113;45.624;11.700;2023-09-18T10:20:15;27.00;65.50
63013;DHT22;62113;45.624;11.700;2023-09-18T10:22:45;27.00;66.00
63013;DHT22;62113;45.624;11.700;2023-09-18T10:27:40;26.80;66.40
63013;DHT22;62113;45.624;11.700;2023-09-18T10:30:07;26.80;66.70
63013;DHT22;62113;45.624;11.700;2023-09-18T10:32:45;26.70;67.20
63013;DHT22;62113;45.624;11.700;2023-09-18T10:35:11;26.70;68.20
63013;DHT22;62113;45.624;11.700;2023-09-18T10:37:42;26.70;68.00
63013;DHT22;62113;45.624;11.700;2023-09-18T10:40:09;26.60;67.20
63013;DHT22;62113;45.624;11.700;2023-09-18T10:42:35;26.50;67.90
63013;DHT22;62113;45.624;11.700;2023-09-18T10:45:02;26.50;67.70
63013;DHT22;62113;45.624;11.700;2023-09-18T10:47:29;26.40;67.50
63013;DHT22;62113;45.624;11.700;2023-09-18T10:49:55;26.40;67.60
63013;DHT22;62113;45.624;11.700;2023-09-18T10:52:21;26.40;68.00
63013;DHT22;62113;45.624;11.700;2023-09-18T10:54:47;26.30;68.80
63013;DHT22;62113;45.624;11.700;2023-09-18T10:57:12;26.40;68.70
63013;DHT22;62113;45.624;11.700;2023-09-18T10:59:44;26.30;69.30
63013;DHT22;62113;45.624;11.700;2023-09-18T11:02:13;26.30;69.10
63013;DHT22;62113;45.624;11.700;2023-09-18T11:04:40;26.30;69.00
63013;DHT22;62113;45.624;11.700;2023-09-18T11:07:06;26.30;69.10
63013;DHT22;62113;45.624;11.700;2023-09-18T11:09:32;26.20;69.30
63013;DHT22;62113;45.624;11.700;2023-09-18T11:12:05;26.20;69.70
63013;DHT22;62113;45.624;11.700;2023-09-18T11:20:02;26.30;70.30
63013;DHT22;62113;45.624;11.700;2023-09-18T11:22:27;26.40;69.90
63013;DHT22;62113;45.624;11.700;2023-09-18T11:24:53;26.50;69.50
63013;DHT22;62113;45.624;11.700;2023-09-18T11:27:23;26.60;69.20
63013;DHT22;62113;45.624;11.700;2023-09-18T11:29:50;26.70;69.00
63013;DHT22;62113;45.624;11.700;2023-09-18T11:32:36;26.80;69.30
63013;DHT22;62113;45.624;11.700;2023-09-18T11:35:08;26.80;68.80
63013;DHT22;62113;45.624;11.700;2023-09-18T11:37:33;26.80;68.40
63013;DHT22;62113;45.624;11.700;2023-09-18T11:40:00;27.00;68.50
63013;DHT22;62113;45.624;11.700;2023-09-18T11:42:25;27.10;68.60
63013;DHT22;62113;45.624;11.700;2023-09-18T11:44:52;27.10;68.60
63013;DHT22;62113;45.624;11.700;2023-09-18T11:47:19;27.20;68.10
63013;DHT22;62113;45.624;11.700;2023-09-18T11:52:20;27.20;68.10
63013;DHT22;62113;45.624;11.700;2023-09-18T11:54:46;27.20;67.90
63013;DHT22;62113;45.624;11.700;2023-09-18T11:57:12;27.30;67.70
63013;DHT22;62113;45.624;11.700;2023-09-18T11:59:39;27.30;67.80
63013;DHT22;62113;45.624;11.700;2023-09-18T12:02:04;27.30;67.20
63013;DHT22;62113;45.624;11.700;2023-09-18T12:04:34;27.30;66.30
63013;DHT22;62113;45.624;11.700;2023-09-18T12:06:59;27.40;66.70
63013;DHT22;62113;45.624;11.700;2023-09-18T12:09:32;27.40;67.10
63013;DHT22;62113;45.624;11.700;2023-09-18T12:12:00;27.40;67.00
63013;DHT22;62113;45.624;11.700;2023-09-18T12:14:31;27.50;66.90
63013;DHT22;62113;45.624;11.700;2023-09-18T12:16:56;27.50;66.80
63013;DHT22;62113;45.624;11.700;2023-09-18T12:19:22;27.50;66.40
63013;DHT22;62113;45.624;11.700;2023-09-18T12:21:48;27.60;64.50
63013;DHT22;62113;45.624;11.700;2023-09-18T12:24:24;27.60;66.10
63013;DHT22;62113;45.624;11.700;2023-09-18T12:26:50;27.60;65.30
63013;DHT22;62113;45.624;11.700;2023-09-18T12:29:16;27.60;66.20
63013;DHT22;62113;45.624;11.700;2023-09-18T12:31:41;27.60;66.00
63013;DHT22;62113;45.624;11.700;2023-09-18T12:34:20;27.60;65.70
63013;DHT22;62113;45.624;11.700;2023-09-18T12:36:47;27.50;66.10
63013;DHT22;62113;45.624;11.700;2023-09-18T12:39:13;27.50;66.50
63013;DHT22;62113;45.624;11.700;2023-09-18T12:41:41;27.50;66.80
63013;DHT22;62113;45.624;11.700;2023-09-18T12:44:08;27.50;66.60
63013;DHT22;62113;45.624;11.700;2023-09-18T12:46:35;27.50;66.80
63013;DHT22;62113;45.624;11.700;2023-09-18T12:52:00;27.40;66.60
63013;DHT22;62113;45.624;11.700;2023-09-18T12:54:36;27.50;66.50
63013;DHT22;62113;45.624;11.700;2023-09-18T12:57:02;27.50;66.20
63013;DHT22;62113;45.624;11.700;2023-09-18T12:59:33;27.50;66.60
63013;DHT22;62113;45.624;11.700;2023-09-18T13:01:59;27.60;67.00
63013;DHT22;62113;45.624;11.700;2023-09-18T13:04:24;27.60;66.20
63013;DHT22;62113;45.624;11.700;2023-09-18T13:07:06;27.60;66.50
63013;DHT22;62113;45.624;11.700;2023-09-18T13:09:32;27.70;66.40
63013;DHT22;62113;45.624;11.700;2023-09-18T13:11:57;27.70;66.30
63013;DHT22;62113;45.624;11.700;2023-09-18T13:14:23;27.70;66.20
63013;DHT22;62113;45.624;11.700;2023-09-18T13:16:49;27.70;66.10
63013;DHT22;62113;45.624;11.700;2023-09-18T13:19:15;27.80;66.10
63013;DHT22;62113;45.624;11.700;2023-09-18T13:21:47;27.70;66.00
63013;DHT22;62113;45.624;11.700;2023-09-18T13:24:28;27.80;65.90
63013;DHT22;62113;45.624;11.700;2023-09-18T13:26:54;27.80;65.80
63013;DHT22;62113;45.624;11.700;2023-09-18T13:29:20;27.80;66.00
63013;DHT22;62113;45.624;11.700;2023-09-18T13:31:45;27.80;65.90
63013;DHT22;62113;45.624;11.700;2023-09-18T13:34:11;27.80;65.60
63013;DHT22;62113;45.624;11.700;2023-09-18T13:36:36;27.80;65.80
63013;DHT22;62113;45.624;11.700;2023-09-18T13:39:03;27.80;65.60
63013;DHT22;62113;45.624;11.700;2023-09-18T13:41:29;27.70;65.80
63013;DHT22;62113;45.624;11.700;2023-09-18T13:43:54;27.70;65.80
63013;DHT22;62113;45.624;11.700;2023-09-18T13:46:21;27.70;65.90
63013;DHT22;62113;45.624;11.700;2023-09-18T13:48:46;27.70;66.70
63013;DHT22;62113;45.624;11.700;2023-09-18T13:51:13;27.70;66.40
63013;DHT22;62113;45.624;11.700;2023-09-18T13:53:38;27.70;66.50
63013;DHT22;62113;45.624;11.700;2023-09-18T13:56:06;27.70;66.30
63013;DHT22;62113;45.624;11.700;2023-09-18T13:58:32;27.70;66.60
63013;DHT22;62113;45.624;11.700;2023-09-18T14:00:57;27.70;66.80
63013;DHT22;62113;45.624;11.700;2023-09-18T14:03:23;27.70;66.80
63013;DHT22;62113;45.624;11.700;2023-09-18T14:05:49;27.80;66.50
63013;DHT22;62113;45.624;11.700;2023-09-18T14:08:15;27.80;66.60
63013;DHT22;62113;45.624;11.700;2023-09-18T14:10:42;27.80;66.60
63013;DHT22;62113;45.624;11.700;2023-09-18T14:13:08;27.70;66.90
63013;DHT22;62113;45.624;11.700;2023-09-18T14:15:33;27.70;67.00
63013;DHT22;62113;45.624;11.700;2023-09-18T14:17:59;27.60;67.20
63013;DHT22;62113;45.624;11.700;2023-09-18T14:20:25;27.50;67.40
63013;DHT22;62113;45.624;11.700;2023-09-18T14:22:50;27.40;68.20
63013;DHT22;62113;45.624;11.700;2023-09-18T14:25:16;27.20;68.00
63013;DHT22;62113;45.624;11.700;2023-09-18T14:27:42;27.20;69.00
63013;DHT22;62113;45.624;11.700;2023-09-18T14:30:07;27.20;68.60
63013;DHT22;62113;45.624;11.700;2023-09-18T14:32:34;27.20;68.80
63013;DHT22;62113;45.624;11.700;2023-09-18T14:35:01;27.20;69.40
63013;DHT22;62113;45.624;11.700;2023-09-18T14:37:28;27.10;69.90
63013;DHT22;62113;45.624;11.700;2023-09-18T14:39:54;27.10;69.40
63013;DHT22;62113;45.624;11.700;2023-09-18T14:42:19;27.10;70.30
63013;DHT22;62113;45.624;11.700;2023-09-18T14:44:45;27.10;70.70
63013;DHT22;62113;45.624;11.700;2023-09-18T14:47:11;27.10;67.90
63013;DHT22;62113;45.624;11.700;2023-09-18T14:49:37;27.10;66.00
63013;DHT22;62113;45.624;11.700;2023-09-18T14:52:04;27.00;65.80
63013;DHT22;62113;45.624;11.700;2023-09-18T14:54:30;26.90;65.30
63013;DHT22;62113;45.624;11.700;2023-09-18T14:56:55;26.90;66.60
63013;DHT22;62113;45.624;11.700;2023-09-18T14:59:21;26.90;66.90
63013;DHT22;62113;45.624;11.700;2023-09-18T15:01:46;27.00;67.30
63013;DHT22;62113;45.624;11.700;2023-09-18T15:04:14;26.90;66.80
63013;DHT22;62113;45.624;11.700;2023-09-18T15:06:40;26.80;66.50
63013;DHT22;62113;45.624;11.700;2023-09-18T15:09:06;26.90;66.60
63013;DHT22;62113;45.624;11.700;2023-09-18T15:11:33;26.80;66.90
63013;DHT22;62113;45.624;11.700;2023-09-18T15:14:00;26.90;67.00
63013;DHT22;62113;45.624;11.700;2023-09-18T15:16:26;26.90;67.00
63013;DHT22;62113;45.624;11.700;2023-09-18T15:18:51;26.90;67.10
63013;DHT22;62113;45.624;11.700;2023-09-18T15:21:17;27.00;67.00
63013;DHT22;62113;45.624;11.700;2023-09-18T15:23:43;27.10;67.10
63013;DHT22;62113;45.624;11.700;2023-09-18T15:26:08;27.10;66.50
63013;DHT22;62113;45.624;11.700;2023-09-18T15:28:34;27.10;66.50
63013;DHT22;62113;45.624;11.700;2023-09-18T15:30:59;27.10;66.40
63013;DHT22;62113;45.624;11.700;2023-09-18T15:33:25;27.10;66.40